Time;durP1;ratioP1;P1;durP2;ratioP2;P2;SDS_P1;SDS_P2;PMS_P1;PMS_P2;Temp;Humidity;BMP_temperature;BMP_pressure;BME280_temperature;BME280_humidity;BME280_pressure;Samples;Min_cycle;Max_cycle;Signal;HPM_P1;HPM_P2
2023/07/06 00:02:09;;;;;;;10.00;5.13;;;12.30;99.90;;;;;;5013410;28;20046;-66
2023/07/06 00:04:38;;;;;;;9.98;5.88;;;12.30;99.90;;;;;;5013677;28;20522;-66
2023/07/06 00:07:04;;;;;;;11.90;5.78;;;12.30;99.90;;;;;;5013712;28;20041;-67
2023/07/06 00:09:35;;;;;;;9.52;5.25;;;12.30;99.90;;;;;;5012603;28;20049;-67
2023/07/06 00:12:01;;;;;;;11.85;5.38;;;12.30;99.90;;;;;;5013441;28;20048;-67
2023/07/06 00:14:26;;;;;;;10.70;5.30;;;12.30;99.90;;;;;;4995758;28;20046;-67
2023/07/06 00:17:15;;;;;;;7.22;4.50;;;12.20;99.90;;;;;;4995234;28;20077;-66
2023/07/06 00:19:41;;;;;;;9.60;5.15;;;12.30;99.90;;;;;;4979683;28;20046;-67
2023/07/06 00:22:09;;;;;;;10.25;5.60;;;12.20;99.90;;;;;;4995901;28;20041;-66
2023/07/06 00:24:36;;;;;;;10.80;6.18;;;12.20;99.90;;;;;;4995537;28;20050;-66
2023/07/06 00:27:02;;;;;;;10.52;5.75;;;12.20;99.90;;;;;;4995764;28;20104;-66
2023/07/06 00:29:35;;;;;;;8.52;5.45;;;12.20;99.90;;;;;;5012436;28;20042;-66
2023/07/06 00:32:15;;;;;;;8.18;5.50;;;12.20;99.90;;;;;;4995610;28;20048;-67
2023/07/06 00:34:44;;;;;;;8.90;5.20;;;12.20;99.90;;;;;;5013106;28;20076;-66
2023/07/06 00:37:12;;;;;;;10.68;6.25;;;12.10;99.90;;;;;;4995298;28;20044;-67
2023/07/06 00:39:38;;;;;;;11.57;5.55;;;12.10;99.90;;;;;;4995816;28;20042;-67
2023/07/06 00:42:05;;;;;;;9.07;5.50;;;12.10;99.90;;;;;;4995568;28;20048;-67
2023/07/06 00:45:01;;;;;;;8.77;5.22;;;12.10;99.90;;;;;;5012056;28;20092;-67
2023/07/06 00:47:38;;;;;;;9.57;5.07;;;12.10;99.90;;;;;;5012640;28;20041;-67
2023/07/06 00:50:08;;;;;;;8.70;5.40;;;12.10;99.90;;;;;;4995192;28;20050;-66
2023/07/06 00:52:41;;;;;;;11.40;5.88;;;12.10;99.90;;;;;;4994369;28;20046;-67
2023/07/06 00:55:10;;;;;;;9.55;5.82;;;12.00;99.90;;;;;;5012986;28;20033;-66
2023/07/06 00:57:38;;;;;;;10.50;6.40;;;12.10;99.90;;;;;;5011862;28;20038;-66
2023/07/06 01:00:07;;;;;;;11.88;5.65;;;12.00;99.90;;;;;;4995128;28;20053;-67
2023/07/06 01:02:38;;;;;;;9.25;6.28;;;12.00;99.90;;;;;;5012813;28;20084;-67
2023/07/06 01:05:06;;;;;;;12.07;6.07;;;12.00;99.90;;;;;;4994272;28;20510;-66
2023/07/06 01:07:34;;;;;;;11.77;6.50;;;12.00;99.90;;;;;;5012729;28;20453;-67
2023/07/06 01:10:01;;;;;;;10.23;6.03;;;12.00;99.90;;;;;;4994966;28;20398;-66
2023/07/06 01:12:26;;;;;;;10.30;6.65;;;12.00;99.90;;;;;;5011492;28;20034;-66
2023/07/06 01:14:52;;;;;;;8.85;5.40;;;12.00;99.90;;;;;;4994462;28;20134;-67
2023/07/06 01:17:29;;;;;;;11.50;6.47;;;12.10;99.90;;;;;;5012403;28;20107;-67
2023/07/06 01:19:55;;;;;;;11.25;6.88;;;12.10;99.90;;;;;;5011671;28;20045;-67
2023/07/06 01:22:29;;;;;;;9.02;6.18;;;12.10;99.90;;;;;;4994799;28;20049;-67
2023/07/06 01:25:10;;;;;;;11.38;5.82;;;12.10;99.90;;;;;;4994773;28;20045;-67
2023/07/06 01:27:44;;;;;;;12.48;6.40;;;12.10;99.90;;;;;;5011514;28;20130;-67
2023/07/06 01:30:38;;;;;;;11.55;6.78;;;12.20;99.90;;;;;;4994907;28;20495;-67
2023/07/06 01:33:11;;;;;;;10.20;6.13;;;12.20;99.90;;;;;;4977839;28;20042;-67
2023/07/06 01:36:12;;;;;;;9.88;6.25;;;12.30;99.90;;;;;;5013593;28;20034;-66
2023/07/06 01:38:38;;;;;;;9.15;5.25;;;12.30;99.90;;;;;;4936010;29;20497;-66
2023/07/06 01:41:06;;;;;;;10.85;6.43;;;12.30;99.90;;;;;;5014655;28;20100;-67
2023/07/06 01:43:33;;;;;;;11.05;6.93;;;12.30;99.90;;;;;;5013813;28;20045;-62
2023/07/06 01:45:58;;;;;;;11.07;5.68;;;12.30;99.90;;;;;;5014338;28;20061;-62
2023/07/06 01:48:24;;;;;;;10.68;6.07;;;12.30;99.90;;;;;;4996994;28;20399;-62
2023/07/06 01:51:10;;;;;;;12.85;6.97;;;12.30;99.90;;;;;;5014281;28;20049;-62
2023/07/06 01:53:45;;;;;;;;;;;12.40;99.90;;;;;;5014467;28;20393;-62
2023/07/06 01:56:21;;;;;;;9.83;6.20;;;12.40;99.90;;;;;;5031959;28;19917;-62
2023/07/06 01:59:03;;;;;;;14.57;7.15;;;12.40;99.90;;;;;;4997812;28;20280;-62
2023/07/06 02:01:35;;;;;;;10.98;7.20;;;12.40;99.90;;;;;;4981289;28;20041;-62
2023/07/06 02:04:06;;;;;;;9.43;5.88;;;12.40;99.90;;;;;;5012040;28;20038;-62
2023/07/06 02:06:33;;;;;;;8.45;5.60;;;12.50;99.90;;;;;;4997786;28;20041;-62
2023/07/06 02:08:59;;;;;;;12.10;7.47;;;12.50;99.90;;;;;;4997524;28;20491;-62
2023/07/06 02:11:24;;;;;;;11.20;6.53;;;12.50;99.90;;;;;;4998312;28;20092;-62
2023/07/06 02:13:51;;;;;;;8.68;5.93;;;12.50;99.90;;;;;;5015680;28;20364;-62
2023/07/06 02:16:17;;;;;;;10.15;5.93;;;12.50;99.90;;;;;;4997264;28;20464;-62
2023/07/06 02:18:43;;;;;;;10.38;7.05;;;12.50;99.90;;;;;;4998189;28;20491;-62
2023/07/06 02:21:09;;;;;;;11.85;6.47;;;12.50;99.90;;;;;;4998580;28;20049;-62
2023/07/06 02:23:36;;;;;;;8.85;5.95;;;12.50;99.90;;;;;;4997157;28;20534;-62
2023/07/06 02:26:02;;;;;;;12.07;5.88;;;12.50;99.90;;;;;;4997870;28;20125;-62
2023/07/06 02:28:28;;;;;;;10.18;5.30;;;12.50;99.90;;;;;;4998108;28;20491;-62
2023/07/06 02:30:54;;;;;;;7.15;4.85;;;12.50;99.90;;;;;;4997381;28;20044;-62
2023/07/06 02:33:20;;;;;;;9.52;6.00;;;12.40;99.90;;;;;;5015401;28;20510;-62
2023/07/06 02:35:46;;;;;;;10.27;5.65;;;12.40;99.90;;;;;;5015136;28;20042;-62
2023/07/06 02:38:16;;;;;;;13.35;5.47;;;12.40;99.90;;;;;;4981493;28;20056;-62
2023/07/06 02:40:42;;;;;;;10.68;5.53;;;12.40;99.90;;;;;;4997807;28;20061;-62
2023/07/06 02:43:08;;;;;;;7.28;4.90;;;12.40;99.90;;;;;;5014830;28;20825;-62
2023/07/06 02:45:34;;;;;;;8.75;5.15;;;12.40;99.90;;;;;;4997708;28;20522;-62
2023/07/06 02:48:00;;;;;;;10.70;4.78;;;12.40;99.90;;;;;;5015014;28;20056;-62
2023/07/06 02:50:27;;;;;;;8.63;4.65;;;12.40;99.90;;;;;;4996803;28;20124;-62
2023/07/06 02:52:53;;;;;;;9.15;5.10;;;12.40;99.90;;;;;;4997398;28;20042;-62
2023/07/06 02:55:19;;;;;;;10.57;5.20;;;12.40;99.90;;;;;;4997351;28;20042;-62
2023/07/06 02:57:44;;;;;;;13.50;5.18;;;12.40;99.90;;;;;;5014273;28;20061;-62
2023/07/06 03:00:13;;;;;;;7.53;4.43;;;12.40;99.90;;;;;;4981655;28;20046;-62
2023/07/06 03:02:40;;;;;;;12.35;4.70;;;12.40;99.90;;;;;;5014935;28;20081;-62
2023/07/06 03:05:07;;;;;;;7.88;4.18;;;12.40;99.90;;;;;;4996844;28;20125;-62
2023/07/06 03:07:35;;;;;;;8.05;4.75;;;12.40;99.90;;;;;;4997047;28;20053;-62
2023/07/06 03:10:02;;;;;;;7.72;4.68;;;12.50;99.90;;;;;;4996958;28;20442;-62
2023/07/06 03:12:36;;;;;;;9.43;4.80;;;12.40;99.90;;;;;;4996684;28;20435;-62
2023/07/06 03:15:10;;;;;;;7.27;4.23;;;12.40;99.90;;;;;;4997149;28;20050;-62
2023/07/06 03:17:37;;;;;;;8.20;4.63;;;12.40;99.90;;;;;;4996909;28;20038;-62
2023/07/06 03:20:15;;;;;;;9.75;4.57;;;12.50;99.90;;;;;;5013726;28;20443;-62
2023/07/06 03:22:48;;;;;;;7.90;4.63;;;12.40;99.90;;;;;;5014557;28;20406;-62
2023/07/06 03:25:18;;;;;;;9.88;4.63;;;12.40;99.90;;;;;;4996212;28;20077;-62
2023/07/06 03:27:46;;;;;;;7.60;4.00;;;12.40;99.90;;;;;;5014215;28;20042;-62
2023/07/06 03:30:13;;;;;;;7.93;4.05;;;12.50;99.90;;;;;;5014747;28;20446;-62
2023/07/06 03:32:38;;;;;;;9.23;4.10;;;12.50;99.90;;;;;;4996677;28;20081;-62
2023/07/06 03:35:06;;;;;;;6.68;4.65;;;12.50;99.90;;;;;;4996945;28;20065;-62
2023/07/06 03:37:32;;;;;;;12.80;5.22;;;12.50;99.90;;;;;;4996880;28;20042;-62
2023/07/06 03:39:58;;;;;;;8.18;4.68;;;12.50;99.90;;;;;;4995856;28;20041;-62
2023/07/06 03:42:23;;;;;;;9.00;5.75;;;12.50;99.90;;;;;;5014062;28;20415;-62
2023/07/06 03:44:51;;;;;;;7.32;4.95;;;12.50;99.90;;;;;;4996604;28;20380;-62
2023/07/06 03:47:16;;;;;;;10.50;5.65;;;12.40;99.90;;;;;;4995558;28;20046;-62
2023/07/06 03:49:42;;;;;;;8.98;5.30;;;12.50;99.90;;;;;;5013736;28;20038;-62
2023/07/06 03:52:08;;;;;;;8.95;5.93;;;12.50;99.90;;;;;;4996746;28;20038;-62
2023/07/06 03:54:34;;;;;;;8.75;5.95;;;12.50;99.90;;;;;;5013150;28;20147;-62
2023/07/06 03:57:01;;;;;;;10.15;5.30;;;12.60;99.90;;;;;;4996379;28;20054;-62
2023/07/06 03:59:31;;;;;;;7.43;4.78;;;12.50;99.90;;;;;;4996202;28;20503;-62
2023/07/06 04:01:57;;;;;;;8.57;5.70;;;12.60;99.90;;;;;;4996119;28;20457;-62
2023/07/06 04:04:28;;;;;;;11.85;6.25;;;12.60;99.90;;;;;;4996425;28;20136;-62
2023/07/06 04:06:55;;;;;;;10.77;5.30;;;12.60;99.90;;;;;;4995773;28;20057;-62
2023/07/06 04:09:21;;;;;;;9.00;5.28;;;12.60;99.90;;;;;;5013049;28;20473;-62
2023/07/06 04:11:47;;;;;;;9.07;5.78;;;12.70;99.90;;;;;;5013642;28;20037;-62
2023/07/06 04:14:13;;;;;;;9.80;5.85;;;12.70;99.90;;;;;;4995957;28;20513;-62
2023/07/06 04:16:40;;;;;;;9.52;6.13;;;12.60;99.90;;;;;;4995713;28;20403;-62
2023/07/06 04:19:06;;;;;;;10.30;5.97;;;12.70;99.90;;;;;;4996220;28;20056;-62
2023/07/06 04:21:32;;;;;;;8.18;5.80;;;12.70;99.90;;;;;;5012721;28;20042;-62
2023/07/06 04:23:58;;;;;;;11.80;7.07;;;12.70;99.90;;;;;;5013204;28;20494;-62
2023/07/06 04:26:24;;;;;;;9.93;5.72;;;12.70;99.90;;;;;;4995946;28;20111;-62
2023/07/06 04:28:50;;;;;;;12.73;6.78;;;12.70;99.90;;;;;;4994117;28;20491;-62
2023/07/06 04:31:16;;;;;;;10.32;6.60;;;12.70;99.90;;;;;;4979449;28;20042;-62
2023/07/06 04:33:48;;;;;;;12.30;6.18;;;12.70;99.90;;;;;;4979391;28;20038;-62
2023/07/06 04:36:17;;;;;;;11.73;6.47;;;12.70;99.90;;;;;;4994565;28;20114;-62
2023/07/06 04:38:44;;;;;;;11.38;6.40;;;12.70;99.90;;;;;;5012812;28;20046;-62
2023/07/06 04:41:12;;;;;;;11.02;6.72;;;12.70;99.90;;;;;;4995785;28;20049;-62
2023/07/06 04:43:38;;;;;;;11.68;6.38;;;12.80;99.90;;;;;;5012492;28;20077;-62
2023/07/06 04:46:04;;;;;;;13.63;8.18;;;12.80;99.90;;;;;;4995299;28;20053;-62
2023/07/06 04:48:32;;;;;;;15.07;6.10;;;12.90;99.90;;;;;;5012883;28;20376;-62
2023/07/06 04:50:59;;;;;;;15.45;7.72;;;13.00;99.90;;;;;;4994346;28;20100;-62
2023/07/06 04:53:25;;;;;;;13.75;7.32;;;13.10;99.90;;;;;;4995188;28;20042;-62
2023/07/06 04:55:51;;;;;;;11.73;7.53;;;13.20;99.90;;;;;;5012648;28;20037;-62
2023/07/06 04:58:17;;;;;;;12.05;7.38;;;13.30;99.90;;;;;;4994340;28;20149;-62
2023/07/06 05:00:45;;;;;;;11.07;7.90;;;13.40;99.90;;;;;;4995469;28;20395;-62
2023/07/06 05:03:12;;;;;;;12.63;8.60;;;13.40;99.90;;;;;;4995393;28;20050;-62
2023/07/06 05:05:43;;;;;;;12.00;7.60;;;13.50;99.90;;;;;;4994324;28;20199;-62
2023/07/06 05:08:15;;;;;;;15.27;8.80;;;13.60;99.90;;;;;;4979377;28;20041;-62
2023/07/06 05:10:46;;;;;;;12.20;8.85;;;13.60;99.90;;;;;;5011890;28;20065;-62
2023/07/06 05:13:12;;;;;;;15.82;9.50;;;13.60;99.90;;;;;;5012942;28;20117;-62
2023/07/06 05:15:37;;;;;;;15.50;8.65;;;13.70;99.90;;;;;;4994590;28;20132;-62
2023/07/06 05:18:04;;;;;;;12.20;7.82;;;13.80;99.90;;;;;;4993802;28;20479;-62
2023/07/06 05:20:31;;;;;;;13.55;8.93;;;13.90;99.90;;;;;;5012662;28;20048;-62
2023/07/06 05:22:57;;;;;;;10.73;7.88;;;14.00;99.90;;;;;;5012545;28;20041;-62
2023/07/06 05:25:23;;;;;;;16.15;9.38;;;14.10;99.90;;;;;;4994053;28;20053;-62
2023/07/06 05:27:49;;;;;;;19.77;8.88;;;14.10;99.90;;;;;;5012351;28;20121;-62
2023/07/06 05:30:16;;;;;;;16.15;9.00;;;14.20;99.90;;;;;;4994749;28;20142;-62
2023/07/06 05:32:41;;;;;;;17.50;9.68;;;14.10;99.90;;;;;;5011336;28;20038;-62
2023/07/06 05:35:08;;;;;;;15.13;9.60;;;14.20;99.90;;;;;;5012742;28;20438;-62
2023/07/06 05:37:34;;;;;;;15.18;9.73;;;14.20;99.90;;;;;;4994679;28;20053;-62
2023/07/06 05:40:03;;;;;;;14.85;8.10;;;14.20;99.90;;;;;;4993882;28;20053;-62
2023/07/06 05:42:32;;;;;;;17.90;9.02;;;14.40;99.90;;;;;;4978439;28;20092;-62
2023/07/06 05:45:01;;;;;;;15.15;9.13;;;14.50;99.90;;;;;;5011871;28;20056;-62
2023/07/06 05:47:27;;;;;;;17.52;9.63;;;14.70;99.90;;;;;;5011135;28;20046;-62
2023/07/06 05:49:53;;;;;;;19.45;9.55;;;14.90;99.90;;;;;;5012048;28;20058;-62
2023/07/06 05:52:19;;;;;;;21.10;10.32;;;15.10;99.90;;;;;;4994382;28;20122;-62
2023/07/06 05:54:45;;;;;;;13.98;8.70;;;15.30;99.90;;;;;;5011268;28;20124;-62
2023/07/06 05:57:13;;;;;;;17.13;8.15;;;15.50;99.90;;;;;;5012409;28;20034;-62
2023/07/06 05:59:41;;;;;;;20.05;9.07;;;15.70;99.90;;;;;;4978437;28;20042;-62
2023/07/06 06:02:13;;;;;;;21.42;7.78;;;15.80;99.90;;;;;;5011675;28;20639;-62
2023/07/06 06:04:41;;;;;;;16.10;7.97;;;16.00;99.90;;;;;;5012472;28;20050;-62
2023/07/06 06:07:10;;;;;;;11.48;7.30;;;16.10;99.90;;;;;;5011388;28;20648;-62
2023/07/06 06:09:36;;;;;;;19.02;8.30;;;16.30;99.90;;;;;;5012012;28;20053;-62
2023/07/06 06:12:04;;;;;;;12.52;7.40;;;16.40;99.90;;;;;;4994263;28;20041;-62
2023/07/06 06:14:31;;;;;;;10.82;6.50;;;16.50;99.90;;;;;;4989773;28;20041;-62
2023/07/06 06:16:57;;;;;;;12.68;7.35;;;16.60;99.90;;;;;;5008731;28;20046;-62
2023/07/06 06:19:22;;;;;;;13.27;6.50;;;16.70;99.90;;;;;;4991682;28;20426;-62
2023/07/06 06:21:49;;;;;;;17.15;7.55;;;16.90;99.90;;;;;;4990784;28;20406;-62
2023/07/06 06:24:17;;;;;;;16.27;7.25;;;17.00;99.90;;;;;;4975715;28;20430;-62
2023/07/06 06:26:43;;;;;;;13.00;7.28;;;17.00;99.90;;;;;;4998286;28;20492;-62
2023/07/06 06:29:09;;;;;;;16.30;7.72;;;17.20;99.90;;;;;;4996325;28;20125;-62
2023/07/06 06:31:36;;;;;;;14.25;7.45;;;17.20;99.90;;;;;;4996154;28;20237;-62
2023/07/06 06:34:02;;;;;;;13.30;6.75;;;17.40;99.90;;;;;;4963901;28;20046;-62
2023/07/06 06:36:28;;;;;;;13.05;5.85;;;17.40;99.90;;;;;;4971412;28;20052;-62
2023/07/06 06:38:55;;;;;;;12.25;6.38;;;17.50;99.90;;;;;;4960422;28;20042;-62
2023/07/06 06:41:21;;;;;;;13.18;6.05;;;17.70;99.90;;;;;;5008608;28;20088;-62
2023/07/06 06:43:47;;;;;;;13.73;6.38;;;17.70;99.90;;;;;;5007999;28;20048;-62
2023/07/06 06:46:14;;;;;;;13.02;6.90;;;17.70;99.90;;;;;;5008832;28;20037;-63
2023/07/06 06:48:40;;;;;;;13.50;6.68;;;17.80;99.90;;;;;;4991005;28;20116;-63
2023/07/06 06:51:10;;;;;;;15.95;6.82;;;17.90;99.90;;;;;;4991603;28;20056;-62
2023/07/06 06:53:39;;;;;;;19.52;7.03;;;18.00;99.90;;;;;;4994794;28;20465;-62
2023/07/06 06:56:07;;;;;;;14.15;5.65;;;18.10;99.90;;;;;;5011958;28;20054;-62
2023/07/06 06:58:33;;;;;;;11.75;5.15;;;18.10;99.90;;;;;;4994701;28;20056;-62
2023/07/06 07:01:05;;;;;;;8.90;5.32;;;18.10;99.90;;;;;;5011808;28;20042;-62
2023/07/06 07:03:31;;;;;;;9.27;4.85;;;18.20;99.90;;;;;;4990991;28;20050;-62
2023/07/06 07:05:59;;;;;;;11.25;5.35;;;18.20;99.90;;;;;;5008026;28;20045;-62
2023/07/06 07:08:25;;;;;;;11.70;5.13;;;18.20;99.90;;;;;;4992977;28;20092;-62
2023/07/06 07:10:57;;;;;;;14.00;6.10;;;18.20;99.90;;;;;;5000404;28;20408;-63
2023/07/06 07:13:27;;;;;;;13.15;5.22;;;18.20;99.90;;;;;;4981572;28;20150;-62
2023/07/06 07:15:53;;;;;;;10.65;4.50;;;18.30;99.90;;;;;;4993550;28;20133;-66
2023/07/06 07:18:21;;;;;;;11.15;4.22;;;18.30;99.90;;;;;;4993230;28;20491;-66
2023/07/06 07:20:53;;;;;;;6.80;3.72;;;18.30;99.90;;;;;;5000364;28;20414;-67
2023/07/06 07:23:24;;;;;;;10.18;3.80;;;18.30;99.90;;;;;;4994529;28;20042;-66
2023/07/06 07:25:51;;;;;;;7.57;3.40;;;18.30;99.90;;;;;;5010479;28;20041;-66
2023/07/06 07:28:18;;;;;;;7.43;3.33;;;18.40;99.90;;;;;;4994102;28;20506;-66
2023/07/06 07:30:56;;;;;;;8.82;3.35;;;18.40;99.90;;;;;;4993813;28;20046;-66
2023/07/06 07:33:23;;;;;;;9.48;3.50;;;18.30;99.90;;;;;;4991213;28;20512;-66
2023/07/06 07:35:51;;;;;;;8.13;2.85;;;18.30;99.90;;;;;;4977683;28;20049;-66
2023/07/06 07:38:19;;;;;;;5.88;2.55;;;18.30;99.90;;;;;;5010436;28;20108;-66
2023/07/06 07:40:58;;;;;;;8.20;2.80;;;18.40;99.90;;;;;;4993928;28;20168;-66
2023/07/06 07:43:26;;;;;;;5.82;2.50;;;18.40;99.90;;;;;;4990191;28;20042;-66
2023/07/06 07:45:57;;;;;;;6.68;2.72;;;18.40;99.90;;;;;;4992269;28;20046;-66
2023/07/06 07:48:25;;;;;;;6.72;2.78;;;18.50;99.90;;;;;;4993578;28;20558;-66
2023/07/06 07:50:53;;;;;;;5.45;2.42;;;18.60;99.90;;;;;;5010305;28;20116;-66
2023/07/06 07:53:24;;;;;;;7.82;2.50;;;18.60;99.90;;;;;;4993246;28;20395;-66
2023/07/06 07:55:52;;;;;;;6.32;2.15;;;18.70;99.90;;;;;;4992501;28;20050;-66
2023/07/06 07:58:17;;;;;;;5.43;2.03;;;18.70;99.90;;;;;;4993754;28;20046;-66
2023/07/06 08:00:57;;;;;;;5.35;1.95;;;18.50;99.90;;;;;;4992960;28;20040;-66
2023/07/06 08:03:24;;;;;;;6.57;1.90;;;18.50;99.90;;;;;;4992016;28;20045;-66
2023/07/06 08:06:02;;;;;;;5.57;1.83;;;18.50;99.90;;;;;;5003427;28;20085;-66
2023/07/06 08:08:32;;;;;;;4.10;1.92;;;18.50;99.90;;;;;;4993403;28;20057;-66
2023/07/06 08:11:05;;;;;;;5.18;1.50;;;18.70;99.90;;;;;;4994025;28;20104;-66
2023/07/06 08:13:32;;;;;;;4.28;1.88;;;18.90;99.90;;;;;;4992894;28;20053;-66
2023/07/06 08:15:58;;;;;;;6.88;1.67;;;19.00;99.90;;;;;;4994040;28;20795;-66
2023/07/06 08:18:25;;;;;;;5.50;1.65;;;19.00;99.90;;;;;;5011013;28;20050;-66
2023/07/06 08:20:54;;;;;;;3.00;1.33;;;19.00;99.90;;;;;;4992938;28;20109;-66
2023/07/06 08:23:26;;;;;;;6.25;1.90;;;19.20;99.90;;;;;;4993921;28;20041;-66
2023/07/06 08:25:52;;;;;;;10.57;1.85;;;19.20;99.90;;;;;;5010279;28;20050;-66
2023/07/06 08:28:21;;;;;;;7.05;2.00;;;19.10;99.90;;;;;;5010161;28;20050;-66
2023/07/06 08:30:49;;;;;;;4.45;1.70;;;19.10;99.90;;;;;;5011171;28;20116;-66
2023/07/06 08:33:15;;;;;;;3.53;1.83;;;19.00;99.90;;;;;;5009649;28;20435;-66
2023/07/06 08:35:43;;;;;;;2.90;1.25;;;18.80;99.90;;;;;;5010241;28;20116;-66
2023/07/06 08:38:09;;;;;;;4.13;1.60;;;18.80;99.90;;;;;;5010980;28;20403;-66
2023/07/06 08:40:35;;;;;;;4.75;2.17;;;18.70;99.90;;;;;;5011092;28;20034;-65
2023/07/06 08:43:06;;;;;;;4.50;1.80;;;18.60;99.90;;;;;;5010255;28;20491;-68
2023/07/06 08:45:55;;;;;;;8.52;1.92;;;18.50;99.90;;;;;;5011058;28;20080;-68
2023/07/06 08:48:25;;;;;;;4.85;1.77;;;18.60;99.90;;;;;;5010109;28;20048;-66
2023/07/06 08:50:56;;;;;;;6.88;2.22;;;18.60;99.90;;;;;;5009309;28;20073;-67
2023/07/06 08:53:27;;;;;;;5.53;1.85;;;18.70;99.90;;;;;;4994625;28;20053;-67
2023/07/06 08:55:54;;;;;;;6.45;2.13;;;18.80;99.90;;;;;;4994372;28;20121;-67
2023/07/06 08:58:33;;;;;;;7.10;2.85;;;18.90;99.90;;;;;;4995145;28;20046;-68
2023/07/06 09:01:22;;;;;;;5.88;1.98;;;18.80;99.90;;;;;;5011893;28;20042;-67
2023/07/06 09:03:51;;;;;;;4.88;1.80;;;18.80;99.90;;;;;;4994648;28;20045;-67
2023/07/06 09:06:20;;;;;;;8.50;2.38;;;18.70;99.90;;;;;;5012613;28;20427;-67
2023/07/06 09:08:50;;;;;;;6.60;1.80;;;18.80;99.90;;;;;;4988422;28;20041;-67
2023/07/06 09:11:17;;;;;;;5.38;1.48;;;18.90;99.90;;;;;;5011903;28;20439;-67
2023/07/06 09:13:49;;;;;;;4.53;1.75;;;18.90;99.90;;;;;;5011179;28;20048;-67
2023/07/06 09:16:19;;;;;;;5.47;1.63;;;19.00;99.90;;;;;;4993054;28;20096;-68
2023/07/06 09:18:46;;;;;;;4.47;1.50;;;19.10;99.90;;;;;;4994026;28;20050;-67
2023/07/06 09:21:12;;;;;;;5.78;1.90;;;19.10;99.90;;;;;;4995410;28;20046;-69
2023/07/06 09:23:38;;;;;;;5.53;1.90;;;19.10;99.90;;;;;;5012716;28;20053;-67
2023/07/06 09:26:07;;;;;;;6.18;2.25;;;18.90;99.90;;;;;;5011197;28;20065;-67
2023/07/06 09:28:33;;;;;;;5.50;2.50;;;18.80;99.90;;;;;;4994605;28;20100;-66
2023/07/06 09:31:25;;;;;;;3.50;1.77;;;18.70;99.90;;;;;;4993833;28;20042;-66
2023/07/06 09:33:54;;;;;;;4.40;1.92;;;18.70;99.90;;;;;;5010173;28;20108;-66
2023/07/06 09:36:25;;;;;;;5.30;1.80;;;18.80;99.90;;;;;;4994456;28;20054;-68
2023/07/06 09:38:52;;;;;;;5.30;2.30;;;19.10;99.90;;;;;;4994023;28;20053;-70
2023/07/06 09:41:26;;;;;;;7.22;2.13;;;19.30;99.90;;;;;;4993135;28;20040;-68
2023/07/06 09:43:57;;;;;;;;;;;19.30;99.90;;;;;;4994680;28;20084;-69
2023/07/06 09:46:31;;;;;;;3.47;1.50;;;19.20;99.90;;;;;;5011735;28;19917;-68
2023/07/06 09:48:57;;;;;;;6.47;1.77;;;19.20;99.90;;;;;;5011802;28;20077;-68
2023/07/06 09:51:55;;;;;;;3.88;1.73;;;19.30;99.90;;;;;;4994701;28;20076;-68
2023/07/06 09:54:30;;;;;;;4.95;1.92;;;19.60;99.90;;;;;;4963789;28;20554;-69
2023/07/06 09:56:56;;;;;;;5.47;1.45;;;19.60;99.90;;;;;;4994665;28;20038;-69
2023/07/06 09:59:23;;;;;;;4.93;1.73;;;19.50;99.90;;;;;;5011135;28;20046;-68
2023/07/06 10:02:11;;;;;;;4.60;1.58;;;19.50;99.90;;;;;;5011867;28;20073;-68
2023/07/06 10:04:44;;;;;;;4.85;1.40;;;19.70;99.90;;;;;;4994727;28;20561;-69
2023/07/06 10:07:25;;;;;;;5.15;1.60;;;19.80;99.90;;;;;;5011499;28;20050;-69
2023/07/06 10:10:02;;;;;;;6.90;1.90;;;19.80;99.90;;;;;;5011724;28;20045;-69
2023/07/06 10:12:38;;;;;;;3.53;1.42;;;19.70;99.90;;;;;;5012237;28;20077;-68
2023/07/06 10:15:17;;;;;;;4.72;1.40;;;19.80;99.90;;;;;;4993435;28;20050;-69
2023/07/06 10:17:50;;;;;;;3.50;1.40;;;20.00;99.90;;;;;;4994699;28;20443;-68
2023/07/06 10:20:35;;;;;;;5.93;1.40;;;20.30;99.90;;;;;;4993788;28;20398;-68
2023/07/06 10:23:19;;;;;;;5.50;1.73;;;20.50;99.90;;;;;;4994504;28;20391;-68
2023/07/06 10:25:56;;;;;;;4.93;1.65;;;20.50;99.90;;;;;;4995040;28;20081;-68
2023/07/06 10:28:37;;;;;;;6.22;1.50;;;20.30;99.90;;;;;;4997220;28;20088;-68
2023/07/06 10:31:06;;;;;;;3.95;1.60;;;20.10;99.90;;;;;;4997977;28;20045;-68
2023/07/06 10:33:52;;;;;;;4.47;1.65;;;19.80;99.90;;;;;;5015657;28;20076;-68
2023/07/06 10:36:18;;;;;;;4.88;1.65;;;19.70;99.90;;;;;;4980912;28;20092;-68
2023/07/06 10:38:47;;;;;;;7.65;1.73;;;19.80;99.90;;;;;;4997827;28;20049;-69
2023/07/06 10:41:12;;;;;;;5.38;2.05;;;19.70;99.90;;;;;;4997165;28;20054;-69
2023/07/06 10:43:48;;;;;;;5.25;1.98;;;19.70;99.90;;;;;;4997954;28;20042;-68
2023/07/06 10:46:33;;;;;;;5.38;2.15;;;19.60;99.90;;;;;;5015404;28;20048;-68
2023/07/06 10:49:21;;;;;;;4.22;2.10;;;19.40;99.90;;;;;;4997000;28;20093;-69
2023/07/06 10:51:55;;;;;;;6.53;2.47;;;19.30;99.90;;;;;;5015265;28;20045;-68
2023/07/06 10:54:21;;;;;;;6.63;2.50;;;19.20;99.90;;;;;;4997679;28;20037;-68
2023/07/06 10:57:12;;;;;;;6.05;2.00;;;19.20;99.90;;;;;;4996988;28;20525;-68
2023/07/06 10:59:49;;;;;;;5.95;2.20;;;19.30;99.90;;;;;;4997643;28;20046;-68
2023/07/06 11:02:21;;;;;;;5.85;1.77;;;19.30;99.90;;;;;;4996770;28;20045;-68
2023/07/06 11:05:21;;;;;;;6.05;2.08;;;19.30;99.90;;;;;;5014721;28;20606;-68
2023/07/06 11:07:50;;;;;;;5.18;2.63;;;19.20;99.90;;;;;;5014832;28;20038;-69
2023/07/06 11:10:22;;;;;;;7.63;2.28;;;19.20;99.90;;;;;;5013892;28;20038;-68
2023/07/06 11:12:51;;;;;;;5.75;2.08;;;19.10;99.90;;;;;;4997236;28;20042;-68
2023/07/06 11:15:17;;;;;;;4.22;1.88;;;19.10;99.90;;;;;;4980756;28;20065;-68
2023/07/06 11:17:48;;;;;;;7.32;1.92;;;19.10;99.90;;;;;;4996251;28;20121;-68
2023/07/06 11:20:26;;;;;;;7.25;2.03;;;19.10;99.90;;;;;;4997297;28;20046;-68
2023/07/06 11:23:00;;;;;;;6.15;2.40;;;19.10;99.90;;;;;;4997224;28;20495;-68
2023/07/06 11:25:28;;;;;;;4.78;1.92;;;19.10;99.90;;;;;;5013923;28;20056;-69
2023/07/06 11:28:05;;;;;;;4.80;1.75;;;19.10;99.90;;;;;;4997220;28;20050;-68
2023/07/06 11:30:47;;;;;;;6.65;1.60;;;19.20;99.90;;;;;;4996283;28;20045;-68
2023/07/06 11:33:47;;;;;;;7.15;2.42;;;19.30;99.90;;;;;;5014271;28;20045;-68
2023/07/06 11:36:26;;;;;;;6.97;1.80;;;19.30;99.90;;;;;;5014377;28;20161;-68
2023/07/06 11:38:51;;;;;;;5.32;1.40;;;19.40;99.90;;;;;;4995938;28;20053;-68
2023/07/06 11:41:49;;;;;;;5.55;2.25;;;19.70;99.90;;;;;;4996604;28;20042;-68
2023/07/06 11:44:39;;;;;;;5.03;1.60;;;20.00;99.90;;;;;;5014534;28;20407;-68
2023/07/06 11:47:29;;;;;;;4.43;1.75;;;19.90;99.90;;;;;;4996982;28;20125;-68
2023/07/06 11:50:02;;;;;;;4.47;1.70;;;19.80;99.90;;;;;;4995311;28;20077;-68
2023/07/06 11:52:35;;;;;;;4.53;1.40;;;19.90;99.90;;;;;;5013093;28;20077;-68
2023/07/06 11:55:34;;;;;;;3.03;1.40;;;20.20;99.90;;;;;;5013909;28;20053;-68
2023/07/06 11:58:18;;;;;;;7.60;1.80;;;20.70;99.90;;;;;;5013803;28;20077;-68
2023/07/06 12:00:51;;;;;;;4.15;1.30;;;20.90;99.90;;;;;;4995797;28;20121;-68
2023/07/06 12:03:26;;;;;;;4.53;1.40;;;21.00;99.90;;;;;;4996520;28;20037;-68
2023/07/06 12:05:56;;;;;;;;;;;20.90;99.90;;;;;;5013516;28;20506;-68
2023/07/06 12:08:35;;;;;;;4.20;1.63;;;20.90;98.90;;;;;;5013586;28;19960;-68
2023/07/06 12:11:16;;;;;;;4.13;1.40;;;21.00;99.70;;;;;;5013646;28;20503;-68
2023/07/06 12:13:48;;;;;;;6.93;1.60;;;21.20;99.30;;;;;;5013056;28;20030;-68
2023/07/06 12:16:18;;;;;;;4.28;1.63;;;21.50;99.60;;;;;;4995935;28;20518;-68
2023/07/06 12:18:46;;;;;;;7.03;1.77;;;21.70;97.80;;;;;;5013476;28;20077;-68
2023/07/06 12:21:32;;;;;;;3.50;1.50;;;21.80;97.00;;;;;;4995303;28;20046;-67
2023/07/06 12:23:59;;;;;;;6.13;2.03;;;21.80;96.00;;;;;;5013463;28;20048;-68
2023/07/06 12:26:29;;;;;;;6.30;1.80;;;21.60;97.10;;;;;;4995333;28;20045;-68
2023/07/06 12:28:59;;;;;;;3.70;1.73;;;21.60;97.30;;;;;;4973999;28;20411;-68
2023/07/06 12:31:27;;;;;;;4.28;1.45;;;21.70;98.40;;;;;;4992503;28;20038;-68
2023/07/06 12:33:55;;;;;;;4.22;1.50;;;21.60;98.20;;;;;;4992356;28;20058;-68
2023/07/06 12:36:21;;;;;;;5.43;1.88;;;21.60;97.70;;;;;;4992289;28;20046;-69
2023/07/06 12:38:48;;;;;;;5.35;1.80;;;21.60;97.30;;;;;;4989422;28;20153;-69
2023/07/06 12:41:19;;;;;;;5.30;1.80;;;21.80;96.40;;;;;;4986435;28;20041;-68
2023/07/06 12:43:45;;;;;;;6.22;1.60;;;22.00;96.20;;;;;;4996395;28;20056;-68
2023/07/06 12:46:12;;;;;;;6.05;2.30;;;22.00;95.80;;;;;;4992604;28;20053;-68
2023/07/06 12:48:48;;;;;;;4.70;1.50;;;21.80;95.40;;;;;;4990574;28;20042;-69
2023/07/06 12:51:21;;;;;;;6.30;1.70;;;21.70;94.10;;;;;;4975278;28;20034;-68
2023/07/06 12:53:50;;;;;;;5.35;1.73;;;21.80;95.20;;;;;;4992523;28;20042;-69
2023/07/06 12:56:21;;;;;;;6.13;1.63;;;22.10;95.80;;;;;;4998549;28;20050;-69
2023/07/06 12:58:58;;;;;;;3.38;1.52;;;22.50;96.00;;;;;;4990422;28;20069;-69
2023/07/06 13:01:45;;;;;;;5.00;1.65;;;22.70;94.60;;;;;;4990493;28;20054;-69